sensor_id;sensor_type;location;lat;lon;timestamp;P1;durP1;ratioP1;P2;durP2;ratioP2
12601;SDS011;30282;16.436;99.370;2023-05-27T00:02:06;50.43;;;29.83;;
12601;SDS011;30282;16.436;99.370;2023-05-27T00:04:36;39.73;;;27.30;;
12601;SDS011;30282;16.436;99.370;2023-05-27T00:07:05;42.23;;;26.80;;
12601;SDS011;30282;16.436;99.370;2023-05-27T00:09:37;49.87;;;28.30;;
12601;SDS011;30282;16.436;99.370;2023-05-27T00:12:07;36.23;;;27.53;;
12601;SDS011;30282;16.436;99.370;2023-05-27T00:14:36;39.23;;;26.53;;
12601;SDS011;30282;16.436;99.370;2023-05-27T00:17:06;43.33;;;29.50;;
12601;SDS011;30282;16.436;99.370;2023-05-27T00:19:39;39.17;;;26.97;;
12601;SDS011;30282;16.436;99.370;2023-05-27T00:22:12;44.00;;;25.07;;
12601;SDS011;30282;16.436;99.370;2023-05-27T00:24:41;40.00;;;25.13;;
12601;SDS011;30282;16.436;99.370;2023-05-27T00:27:11;41.83;;;25.00;;
12601;SDS011;30282;16.436;99.370;2023-05-27T00:29:40;43.40;;;22.83;;
12601;SDS011;30282;16.436;99.370;2023-05-27T00:32:10;36.17;;;23.70;;
12601;SDS011;30282;16.436;99.370;2023-05-27T00:34:39;51.17;;;22.17;;
12601;SDS011;30282;16.436;99.370;2023-05-27T00:37:09;43.27;;;24.20;;
12601;SDS011;30282;16.436;99.370;2023-05-27T00:39:43;36.30;;;23.20;;
12601;SDS011;30282;16.436;99.370;2023-05-27T00:42:12;30.80;;;22.50;;
12601;SDS011;30282;16.436;99.370;2023-05-27T00:44:42;34.30;;;24.17;;
12601;SDS011;30282;16.436;99.370;2023-05-27T00:47:11;31.03;;;21.70;;
12601;SDS011;30282;16.436;99.370;2023-05-27T00:49:44;32.80;;;20.57;;
12601;SDS011;30282;16.436;99.370;2023-05-27T00:52:15;30.57;;;21.23;;
12601;SDS011;30282;16.436;99.370;2023-05-27T00:54:45;34.60;;;22.80;;
12601;SDS011;30282;16.436;99.370;2023-05-27T00:57:15;33.97;;;21.00;;
12601;SDS011;30282;16.436;99.370;2023-05-27T00:59:44;42.77;;;20.90;;
12601;SDS011;30282;16.436;99.370;2023-05-27T01:02:14;37.33;;;21.70;;
12601;SDS011;30282;16.436;99.370;2023-05-27T01:04:43;36.10;;;23.33;;
12601;SDS011;30282;16.436;99.370;2023-05-27T01:07:17;34.57;;;23.03;;
12601;SDS011;30282;16.436;99.370;2023-05-27T01:10:00;33.90;;;21.80;;
12601;SDS011;30282;16.436;99.370;2023-05-27T01:12:51;35.30;;;19.10;;
12601;SDS011;30282;16.436;99.370;2023-05-27T01:15:27;33.90;;;20.13;;
12601;SDS011;30282;16.436;99.370;2023-05-27T01:17:57;41.67;;;20.40;;
12601;SDS011;30282;16.436;99.370;2023-05-27T01:20:30;25.80;;;17.43;;
12601;SDS011;30282;16.436;99.370;2023-05-27T01:23:02;35.07;;;19.57;;
12601;SDS011;30282;16.436;99.370;2023-05-27T01:25:32;37.63;;;20.80;;
12601;SDS011;30282;16.436;99.370;2023-05-27T01:28:01;24.10;;;18.10;;
12601;SDS011;30282;16.436;99.370;2023-05-27T01:30:31;25.30;;;18.30;;
12601;SDS011;30282;16.436;99.370;2023-05-27T01:33:02;30.23;;;17.60;;
12601;SDS011;30282;16.436;99.370;2023-05-27T01:35:37;25.93;;;17.80;;
12601;SDS011;30282;16.436;99.370;2023-05-27T01:38:13;31.97;;;17.83;;
12601;SDS011;30282;16.436;99.370;2023-05-27T01:40:49;38.57;;;17.53;;
12601;SDS011;30282;16.436;99.370;2023-05-27T01:43:19;34.27;;;18.43;;
12601;SDS011;30282;16.436;99.370;2023-05-27T01:45:49;24.97;;;18.37;;
12601;SDS011;30282;16.436;99.370;2023-05-27T01:48:19;25.87;;;17.43;;
12601;SDS011;30282;16.436;99.370;2023-05-27T01:50:48;37.43;;;16.20;;
12601;SDS011;30282;16.436;99.370;2023-05-27T01:53:20;34.70;;;18.37;;
12601;SDS011;30282;16.436;99.370;2023-05-27T01:55:52;32.40;;;17.87;;
12601;SDS011;30282;16.436;99.370;2023-05-27T01:58:21;28.93;;;17.20;;
12601;SDS011;30282;16.436;99.370;2023-05-27T02:00:51;27.93;;;18.20;;
12601;SDS011;30282;16.436;99.370;2023-05-27T02:03:20;23.63;;;17.27;;
12601;SDS011;30282;16.436;99.370;2023-05-27T02:05:50;37.57;;;16.93;;
12601;SDS011;30282;16.436;99.370;2023-05-27T02:08:21;24.03;;;15.87;;
12601;SDS011;30282;16.436;99.370;2023-05-27T02:10:51;29.70;;;16.83;;
12601;SDS011;30282;16.436;99.370;2023-05-27T02:13:20;30.33;;;16.67;;
12601;SDS011;30282;16.436;99.370;2023-05-27T02:15:49;27.93;;;15.53;;
12601;SDS011;30282;16.436;99.370;2023-05-27T02:18:19;28.23;;;16.50;;
12601;SDS011;30282;16.436;99.370;2023-05-27T02:20:51;28.07;;;16.20;;
12601;SDS011;30282;16.436;99.370;2023-05-27T02:23:23;26.70;;;15.33;;
12601;SDS011;30282;16.436;99.370;2023-05-27T02:25:52;26.30;;;15.83;;
12601;SDS011;30282;16.436;99.370;2023-05-27T02:28:21;25.83;;;17.23;;
12601;SDS011;30282;16.436;99.370;2023-05-27T02:30:51;34.33;;;15.90;;
12601;SDS011;30282;16.436;99.370;2023-05-27T02:33:20;33.27;;;14.57;;
12601;SDS011;30282;16.436;99.370;2023-05-27T02:35:50;27.93;;;14.43;;
12601;SDS011;30282;16.436;99.370;2023-05-27T02:38:19;24.70;;;14.53;;
12601;SDS011;30282;16.436;99.370;2023-05-27T02:40:54;18.40;;;14.00;;
12601;SDS011;30282;16.436;99.370;2023-05-27T02:43:40;23.40;;;14.47;;
12601;SDS011;30282;16.436;99.370;2023-05-27T02:46:19;20.40;;;13.70;;
12601;SDS011;30282;16.436;99.370;2023-05-27T02:49:02;27.23;;;14.47;;
12601;SDS011;30282;16.436;99.370;2023-05-27T02:51:35;21.70;;;12.90;;
12601;SDS011;30282;16.436;99.370;2023-05-27T02:54:13;16.80;;;12.20;;
12601;SDS011;30282;16.436;99.370;2023-05-27T02:59:53;23.03;;;14.07;;
12601;SDS011;30282;16.436;99.370;2023-05-27T03:02:34;35.03;;;16.43;;
12601;SDS011;30282;16.436;99.370;2023-05-27T03:05:04;22.47;;;14.87;;
12601;SDS011;30282;16.436;99.370;2023-05-27T03:07:34;23.17;;;14.67;;
12601;SDS011;30282;16.436;99.370;2023-05-27T03:10:09;24.10;;;15.00;;
12601;SDS011;30282;16.436;99.370;2023-05-27T03:12:39;27.93;;;14.90;;
12601;SDS011;30282;16.436;99.370;2023-05-27T03:15:08;25.30;;;12.60;;
12601;SDS011;30282;16.436;99.370;2023-05-27T03:17:41;19.73;;;13.53;;
12601;SDS011;30282;16.436;99.370;2023-05-27T03:20:11;21.17;;;12.90;;
12601;SDS011;30282;16.436;99.370;2023-05-27T03:22:42;22.60;;;11.70;;
12601;SDS011;30282;16.436;99.370;2023-05-27T03:25:14;19.33;;;11.93;;
12601;SDS011;30282;16.436;99.370;2023-05-27T03:27:59;21.67;;;12.77;;
12601;SDS011;30282;16.436;99.370;2023-05-27T03:30:28;20.03;;;11.40;;
12601;SDS011;30282;16.436;99.370;2023-05-27T03:32:58;23.17;;;11.83;;
12601;SDS011;30282;16.436;99.370;2023-05-27T03:35:28;22.70;;;12.07;;
12601;SDS011;30282;16.436;99.370;2023-05-27T03:37:57;21.83;;;12.63;;
12601;SDS011;30282;16.436;99.370;2023-05-27T03:40:29;16.13;;;10.53;;
12601;SDS011;30282;16.436;99.370;2023-05-27T03:42:58;19.20;;;10.80;;
12601;SDS011;30282;16.436;99.370;2023-05-27T03:45:28;16.50;;;9.60;;
12601;SDS011;30282;16.436;99.370;2023-05-27T03:47:58;17.60;;;10.03;;
12601;SDS011;30282;16.436;99.370;2023-05-27T03:50:27;22.37;;;9.90;;
12601;SDS011;30282;16.436;99.370;2023-05-27T03:52:57;21.03;;;10.50;;
12601;SDS011;30282;16.436;99.370;2023-05-27T03:55:26;22.00;;;10.90;;
12601;SDS011;30282;16.436;99.370;2023-05-27T03:57:57;23.23;;;11.20;;
12601;SDS011;30282;16.436;99.370;2023-05-27T04:00:27;20.30;;;10.10;;
12601;SDS011;30282;16.436;99.370;2023-05-27T04:03:01;17.50;;;11.57;;
12601;SDS011;30282;16.436;99.370;2023-05-27T04:05:31;14.60;;;9.57;;
12601;SDS011;30282;16.436;99.370;2023-05-27T04:08:03;14.43;;;9.60;;
12601;SDS011;30282;16.436;99.370;2023-05-27T04:10:34;17.63;;;8.80;;
12601;SDS011;30282;16.436;99.370;2023-05-27T04:13:04;17.90;;;9.77;;
12601;SDS011;30282;16.436;99.370;2023-05-27T04:15:34;19.87;;;9.50;;
12601;SDS011;30282;16.436;99.370;2023-05-27T04:18:03;14.80;;;9.07;;
12601;SDS011;30282;16.436;99.370;2023-05-27T04:20:36;10.33;;;7.13;;
12601;SDS011;30282;16.436;99.370;2023-05-27T04:23:08;15.70;;;9.27;;
12601;SDS011;30282;16.436;99.370;2023-05-27T04:25:39;17.70;;;8.80;;
12601;SDS011;30282;16.436;99.370;2023-05-27T04:28:09;29.33;;;9.60;;
12601;SDS011;30282;16.436;99.370;2023-05-27T04:30:39;19.57;;;9.27;;
12601;SDS011;30282;16.436;99.370;2023-05-27T04:33:08;19.10;;;8.80;;
12601;SDS011;30282;16.436;99.370;2023-05-27T04:35:39;26.60;;;8.70;;
12601;SDS011;30282;16.436;99.370;2023-05-27T04:38:09;15.30;;;8.73;;
12601;SDS011;30282;16.436;99.370;2023-05-27T04:40:44;15.93;;;8.30;;
12601;SDS011;30282;16.436;99.370;2023-05-27T04:43:18;11.37;;;7.83;;
12601;SDS011;30282;16.436;99.370;2023-05-27T04:45:47;13.53;;;7.40;;
12601;SDS011;30282;16.436;99.370;2023-05-27T04:48:17;13.50;;;8.13;;
12601;SDS011;30282;16.436;99.370;2023-05-27T04:50:49;14.07;;;7.43;;
12601;SDS011;30282;16.436;99.370;2023-05-27T04:53:19;15.30;;;8.10;;
12601;SDS011;30282;16.436;99.370;2023-05-27T04:55:51;17.43;;;8.37;;
12601;SDS011;30282;16.436;99.370;2023-05-27T04:58:21;15.47;;;8.20;;
12601;SDS011;30282;16.436;99.370;2023-05-27T05:00:51;16.33;;;8.67;;
12601;SDS011;30282;16.436;99.370;2023-05-27T05:03:22;15.87;;;7.13;;
12601;SDS011;30282;16.436;99.370;2023-05-27T05:06:02;19.10;;;7.70;;
12601;SDS011;30282;16.436;99.370;2023-05-27T05:08:32;13.63;;;8.50;;
12601;SDS011;30282;16.436;99.370;2023-05-27T05:11:04;14.00;;;8.57;;
12601;SDS011;30282;16.436;99.370;2023-05-27T05:13:33;14.17;;;8.37;;
12601;SDS011;30282;16.436;99.370;2023-05-27T05:16:03;12.90;;;7.80;;
12601;SDS011;30282;16.436;99.370;2023-05-27T05:18:32;12.93;;;7.00;;
12601;SDS011;30282;16.436;99.370;2023-05-27T05:21:02;14.80;;;8.97;;
12601;SDS011;30282;16.436;99.370;2023-05-27T05:23:32;18.40;;;8.40;;
12601;SDS011;30282;16.436;99.370;2023-05-27T05:26:07;20.73;;;8.43;;
12601;SDS011;30282;16.436;99.370;2023-05-27T05:28:36;19.63;;;8.93;;
12601;SDS011;30282;16.436;99.370;2023-05-27T05:31:06;11.20;;;7.80;;
12601;SDS011;30282;16.436;99.370;2023-05-27T05:33:36;14.90;;;8.10;;
12601;SDS011;30282;16.436;99.370;2023-05-27T05:36:10;17.40;;;8.27;;
12601;SDS011;30282;16.436;99.370;2023-05-27T05:38:39;18.07;;;7.60;;
12601;SDS011;30282;16.436;99.370;2023-05-27T05:41:10;14.57;;;7.00;;
12601;SDS011;30282;16.436;99.370;2023-05-27T05:43:40;11.50;;;8.20;;
12601;SDS011;30282;16.436;99.370;2023-05-27T05:46:10;19.83;;;8.00;;
12601;SDS011;30282;16.436;99.370;2023-05-27T05:48:39;14.37;;;8.73;;
12601;SDS011;30282;16.436;99.370;2023-05-27T05:51:09;17.17;;;7.90;;
12601;SDS011;30282;16.436;99.370;2023-05-27T05:53:38;20.10;;;8.40;;
12601;SDS011;30282;16.436;99.370;2023-05-27T05:56:08;13.57;;;7.40;;
12601;SDS011;30282;16.436;99.370;2023-05-27T05:58:39;12.03;;;7.20;;
12601;SDS011;30282;16.436;99.370;2023-05-27T06:01:08;18.90;;;8.20;;
12601;SDS011;30282;16.436;99.370;2023-05-27T06:03:38;15.17;;;7.37;;
12601;SDS011;30282;16.436;99.370;2023-05-27T06:06:07;12.43;;;7.63;;
12601;SDS011;30282;16.436;99.370;2023-05-27T06:08:37;14.97;;;8.50;;
12601;SDS011;30282;16.436;99.370;2023-05-27T06:11:06;12.13;;;7.40;;
12601;SDS011;30282;16.436;99.370;2023-05-27T06:13:37;17.10;;;8.00;;
12601;SDS011;30282;16.436;99.370;2023-05-27T06:16:07;13.50;;;7.33;;
12601;SDS011;30282;16.436;99.370;2023-05-27T06:18:37;14.40;;;7.60;;
12601;SDS011;30282;16.436;99.370;2023-05-27T06:21:06;14.73;;;7.83;;
12601;SDS011;30282;16.436;99.370;2023-05-27T06:23:36;15.10;;;7.53;;
12601;SDS011;30282;16.436;99.370;2023-05-27T06:26:05;13.03;;;6.83;;
12601;SDS011;30282;16.436;99.370;2023-05-27T06:28:35;16.47;;;7.30;;
12601;SDS011;30282;16.436;99.370;2023-05-27T06:31:06;11.93;;;6.87;;
12601;SDS011;30282;16.436;99.370;2023-05-27T06:33:35;11.10;;;7.10;;
12601;SDS011;30282;16.436;99.370;2023-05-27T06:36:09;11.83;;;7.23;;
12601;SDS011;30282;16.436;99.370;2023-05-27T06:38:38;17.73;;;7.37;;
12601;SDS011;30282;16.436;99.370;2023-05-27T06:41:08;11.80;;;8.10;;
12601;SDS011;30282;16.436;99.370;2023-05-27T06:43:42;17.33;;;7.87;;
12601;SDS011;30282;16.436;99.370;2023-05-27T06:46:15;16.23;;;8.00;;
12601;SDS011;30282;16.436;99.370;2023-05-27T06:48:46;14.17;;;8.03;;
12601;SDS011;30282;16.436;99.370;2023-05-27T06:51:16;14.17;;;8.00;;
12601;SDS011;30282;16.436;99.370;2023-05-27T06:53:46;12.10;;;8.20;;
12601;SDS011;30282;16.436;99.370;2023-05-27T06:56:15;13.33;;;7.73;;
12601;SDS011;30282;16.436;99.370;2023-05-27T06:58:46;17.37;;;7.80;;
12601;SDS011;30282;16.436;99.370;2023-05-27T07:01:16;15.50;;;7.30;;
12601;SDS011;30282;16.436;99.370;2023-05-27T07:03:46;16.57;;;6.57;;
12601;SDS011;30282;16.436;99.370;2023-05-27T07:06:22;19.23;;;8.00;;
12601;SDS011;30282;16.436;99.370;2023-05-27T07:08:51;18.67;;;7.90;;
12601;SDS011;30282;16.436;99.370;2023-05-27T07:11:21;18.13;;;8.23;;
12601;SDS011;30282;16.436;99.370;2023-05-27T07:13:54;17.40;;;7.37;;
12601;SDS011;30282;16.436;99.370;2023-05-27T07:16:23;14.53;;;8.30;;
12601;SDS011;30282;16.436;99.370;2023-05-27T07:18:52;16.73;;;7.97;;
12601;SDS011;30282;16.436;99.370;2023-05-27T07:21:22;12.63;;;8.13;;
12601;SDS011;30282;16.436;99.370;2023-05-27T07:23:52;16.20;;;8.47;;
12601;SDS011;30282;16.436;99.370;2023-05-27T07:26:24;14.53;;;8.27;;
12601;SDS011;30282;16.436;99.370;2023-05-27T07:28:56;18.60;;;8.40;;
12601;SDS011;30282;16.436;99.370;2023-05-27T07:31:26;16.23;;;8.70;;
12601;SDS011;30282;16.436;99.370;2023-05-27T07:33:56;17.03;;;8.80;;
12601;SDS011;30282;16.436;99.370;2023-05-27T07:36:25;15.40;;;7.93;;
12601;SDS011;30282;16.436;99.370;2023-05-27T07:38:55;17.73;;;9.10;;
12601;SDS011;30282;16.436;99.370;2023-05-27T07:41:24;14.30;;;9.10;;
12601;SDS011;30282;16.436;99.370;2023-05-27T07:43:57;19.83;;;9.03;;
12601;SDS011;30282;16.436;99.370;2023-05-27T07:46:26;14.83;;;9.43;;
12601;SDS011;30282;16.436;99.370;2023-05-27T07:49:05;11.43;;;8.17;;
12601;SDS011;30282;16.436;99.370;2023-05-27T07:51:35;12.47;;;8.37;;
12601;SDS011;30282;16.436;99.370;2023-05-27T07:54:06;22.03;;;8.17;;
12601;SDS011;30282;16.436;99.370;2023-05-27T07:56:35;16.40;;;8.53;;
12601;SDS011;30282;16.436;99.370;2023-05-27T07:59:10;18.33;;;8.50;;
12601;SDS011;30282;16.436;99.370;2023-05-27T08:01:39;17.30;;;8.67;;
12601;SDS011;30282;16.436;99.370;2023-05-27T08:04:12;17.93;;;8.33;;
12601;SDS011;30282;16.436;99.370;2023-05-27T08:06:41;17.60;;;8.03;;
12601;SDS011;30282;16.436;99.370;2023-05-27T08:09:11;13.70;;;8.00;;
12601;SDS011;30282;16.436;99.370;2023-05-27T08:11:40;17.73;;;9.03;;
12601;SDS011;30282;16.436;99.370;2023-05-27T08:14:15;14.27;;;8.40;;
12601;SDS011;30282;16.436;99.370;2023-05-27T08:16:48;15.33;;;9.13;;
12601;SDS011;30282;16.436;99.370;2023-05-27T08:19:23;16.23;;;9.30;;
12601;SDS011;30282;16.436;99.370;2023-05-27T08:21:57;16.90;;;8.07;;
12601;SDS011;30282;16.436;99.370;2023-05-27T08:24:27;22.97;;;8.80;;
12601;SDS011;30282;16.436;99.370;2023-05-27T08:26:58;12.87;;;7.80;;
12601;SDS011;30282;16.436;99.370;2023-05-27T08:29:30;15.83;;;9.53;;
12601;SDS011;30282;16.436;99.370;2023-05-27T08:31:59;20.30;;;8.70;;
12601;SDS011;30282;16.436;99.370;2023-05-27T08:34:29;24.00;;;10.00;;
12601;SDS011;30282;16.436;99.370;2023-05-27T08:36:58;13.77;;;9.10;;
12601;SDS011;30282;16.436;99.370;2023-05-27T08:39:29;19.63;;;8.90;;
12601;SDS011;30282;16.436;99.370;2023-05-27T08:42:01;15.73;;;8.47;;
12601;SDS011;30282;16.436;99.370;2023-05-27T08:44:33;15.27;;;8.40;;
12601;SDS011;30282;16.436;99.370;2023-05-27T08:47:05;15.90;;;8.80;;
12601;SDS011;30282;16.436;99.370;2023-05-27T08:49:36;22.40;;;9.97;;
12601;SDS011;30282;16.436;99.370;2023-05-27T08:52:06;21.07;;;10.47;;
12601;SDS011;30282;16.436;99.370;2023-05-27T08:54:44;17.83;;;8.77;;
12601;SDS011;30282;16.436;99.370;2023-05-27T08:57:15;21.83;;;8.87;;
12601;SDS011;30282;16.436;99.370;2023-05-27T08:59:55;22.13;;;10.93;;
12601;SDS011;30282;16.436;99.370;2023-05-27T09:02:37;18.30;;;8.70;;
12601;SDS011;30282;16.436;99.370;2023-05-27T09:05:06;19.10;;;8.97;;
12601;SDS011;30282;16.436;99.370;2023-05-27T09:07:36;20.33;;;9.60;;
12601;SDS011;30282;16.436;99.370;2023-05-27T09:10:06;16.53;;;8.93;;
12601;SDS011;30282;16.436;99.370;2023-05-27T09:12:36;15.03;;;9.07;;
12601;SDS011;30282;16.436;99.370;2023-05-27T09:15:08;20.60;;;9.40;;
12601;SDS011;30282;16.436;99.370;2023-05-27T09:17:39;17.83;;;9.50;;
12601;SDS011;30282;16.436;99.370;2023-05-27T09:20:09;20.40;;;10.03;;
12601;SDS011;30282;16.436;99.370;2023-05-27T09:22:39;17.10;;;8.63;;
12601;SDS011;30282;16.436;99.370;2023-05-27T09:25:09;15.93;;;8.67;;
12601;SDS011;30282;16.436;99.370;2023-05-27T09:27:38;16.27;;;8.20;;
12601;SDS011;30282;16.436;99.370;2023-05-27T09:30:14;16.50;;;8.77;;
12601;SDS011;30282;16.436;99.370;2023-05-27T09:32:47;15.73;;;8.60;;
12601;SDS011;30282;16.436;99.370;2023-05-27T09:35:19;19.07;;;9.43;;
12601;SDS011;30282;16.436;99.370;2023-05-27T09:37:50;17.40;;;8.87;;
12601;SDS011;30282;16.436;99.370;2023-05-27T09:40:20;19.03;;;9.17;;
12601;SDS011;30282;16.436;99.370;2023-05-27T09:42:49;21.50;;;8.97;;
12601;SDS011;30282;16.436;99.370;2023-05-27T09:45:21;22.30;;;8.70;;
12601;SDS011;30282;16.436;99.370;2023-05-27T09:47:50;15.63;;;9.03;;
12601;SDS011;30282;16.436;99.370;2023-05-27T09:50:21;24.13;;;9.43;;
12601;SDS011;30282;16.436;99.370;2023-05-27T09:52:50;16.17;;;8.23;;
12601;SDS011;30282;16.436;99.370;2023-05-27T09:55:22;21.23;;;9.07;;
12601;SDS011;30282;16.436;99.370;2023-05-27T09:57:52;16.87;;;8.87;;
12601;SDS011;30282;16.436;99.370;2023-05-27T10:00:23;19.37;;;8.30;;
12601;SDS011;30282;16.436;99.370;2023-05-27T10:02:53;13.03;;;8.60;;
12601;SDS011;30282;16.436;99.370;2023-05-27T10:05:25;13.77;;;8.03;;
12601;SDS011;30282;16.436;99.370;2023-05-27T10:07:56;16.13;;;9.33;;
12601;SDS011;30282;16.436;99.370;2023-05-27T10:10:25;13.50;;;9.10;;
12601;SDS011;30282;16.436;99.370;2023-05-27T10:12:57;13.20;;;8.60;;
12601;SDS011;30282;16.436;99.370;2023-05-27T10:15:30;20.00;;;9.10;;
12601;SDS011;30282;16.436;99.370;2023-05-27T10:18:02;21.63;;;9.33;;
12601;SDS011;30282;16.436;99.370;2023-05-27T10:20:36;22.83;;;9.07;;
12601;SDS011;30282;16.436;99.370;2023-05-27T10:23:10;17.93;;;8.80;;
12601;SDS011;30282;16.436;99.370;2023-05-27T10:25:45;15.33;;;8.73;;
12601;SDS011;30282;16.436;99.370;2023-05-27T10:28:25;18.80;;;9.20;;
12601;SDS011;30282;16.436;99.370;2023-05-27T10:31:05;18.53;;;8.53;;
12601;SDS011;30282;16.436;99.370;2023-05-27T10:33:36;16.20;;;8.63;;
12601;SDS011;30282;16.436;99.370;2023-05-27T10:36:09;16.80;;;9.73;;
12601;SDS011;30282;16.436;99.370;2023-05-27T10:38:40;20.63;;;8.97;;
12601;SDS011;30282;16.436;99.370;2023-05-27T10:41:10;19.30;;;9.47;;
12601;SDS011;30282;16.436;99.370;2023-05-27T10:43:40;26.90;;;9.33;;
12601;SDS011;30282;16.436;99.370;2023-05-27T10:46:11;14.57;;;9.13;;
12601;SDS011;30282;16.436;99.370;2023-05-27T10:48:41;18.37;;;8.70;;
12601;SDS011;30282;16.436;99.370;2023-05-27T10:51:11;22.53;;;9.30;;
12601;SDS011;30282;16.436;99.370;2023-05-27T10:53:43;14.80;;;8.53;;
12601;SDS011;30282;16.436;99.370;2023-05-27T10:56:19;20.43;;;9.70;;
12601;SDS011;30282;16.436;99.370;2023-05-27T10:58:49;18.50;;;9.07;;
12601;SDS011;30282;16.436;99.370;2023-05-27T11:01:21;18.53;;;9.17;;
12601;SDS011;30282;16.436;99.370;2023-05-27T11:03:57;19.90;;;9.47;;
12601;SDS011;30282;16.436;99.370;2023-05-27T11:06:26;20.40;;;9.37;;
12601;SDS011;30282;16.436;99.370;2023-05-27T11:08:56;21.80;;;12.67;;
12601;SDS011;30282;16.436;99.370;2023-05-27T11:11:25;30.40;;;18.67;;
12601;SDS011;30282;16.436;99.370;2023-05-27T11:13:55;21.03;;;9.13;;
12601;SDS011;30282;16.436;99.370;2023-05-27T11:16:26;20.23;;;10.60;;
12601;SDS011;30282;16.436;99.370;2023-05-27T11:18:55;66.87;;;35.90;;
12601;SDS011;30282;16.436;99.370;2023-05-27T11:21:24;22.93;;;12.17;;
12601;SDS011;30282;16.436;99.370;2023-05-27T11:23:54;25.17;;;10.80;;
12601;SDS011;30282;16.436;99.370;2023-05-27T11:26:23;22.33;;;10.37;;
12601;SDS011;30282;16.436;99.370;2023-05-27T11:28:56;16.60;;;10.07;;
12601;SDS011;30282;16.436;99.370;2023-05-27T11:31:29;17.23;;;9.70;;
12601;SDS011;30282;16.436;99.370;2023-05-27T11:33:59;22.87;;;11.80;;
12601;SDS011;30282;16.436;99.370;2023-05-27T11:36:28;30.00;;;11.37;;
12601;SDS011;30282;16.436;99.370;2023-05-27T11:38:58;18.17;;;10.17;;
12601;SDS011;30282;16.436;99.370;2023-05-27T11:41:28;34.40;;;15.63;;
12601;SDS011;30282;16.436;99.370;2023-05-27T11:43:58;19.83;;;9.70;;
12601;SDS011;30282;16.436;99.370;2023-05-27T11:46:36;17.57;;;9.53;;
12601;SDS011;30282;16.436;99.370;2023-05-27T11:49:06;20.73;;;11.13;;
12601;SDS011;30282;16.436;99.370;2023-05-27T11:51:36;23.23;;;11.20;;
12601;SDS011;30282;16.436;99.370;2023-05-27T11:54:07;26.60;;;12.20;;
12601;SDS011;30282;16.436;99.370;2023-05-27T11:56:44;17.73;;;10.43;;
12601;SDS011;30282;16.436;99.370;2023-05-27T11:59:14;21.97;;;9.83;;
12601;SDS011;30282;16.436;99.370;2023-05-27T12:01:46;19.33;;;9.90;;
12601;SDS011;30282;16.436;99.370;2023-05-27T12:04:16;16.20;;;9.67;;
12601;SDS011;30282;16.436;99.370;2023-05-27T12:06:45;21.90;;;10.30;;
12601;SDS011;30282;16.436;99.370;2023-05-27T12:09:15;20.33;;;10.17;;
12601;SDS011;30282;16.436;99.370;2023-05-27T12:11:45;22.07;;;9.97;;
12601;SDS011;30282;16.436;99.370;2023-05-27T12:14:17;25.13;;;11.13;;
12601;SDS011;30282;16.436;99.370;2023-05-27T12:16:48;21.23;;;11.20;;
12601;SDS011;30282;16.436;99.370;2023-05-27T12:19:18;24.47;;;12.50;;
12601;SDS011;30282;16.436;99.370;2023-05-27T12:21:47;20.43;;;10.10;;
12601;SDS011;30282;16.436;99.370;2023-05-27T12:24:17;27.57;;;11.17;;
12601;SDS011;30282;16.436;99.370;2023-05-27T12:26:46;17.17;;;9.57;;
12601;SDS011;30282;16.436;99.370;2023-05-27T12:29:16;19.40;;;9.47;;
12601;SDS011;30282;16.436;99.370;2023-05-27T12:31:48;20.50;;;9.87;;
12601;SDS011;30282;16.436;99.370;2023-05-27T12:34:18;24.10;;;11.60;;
12601;SDS011;30282;16.436;99.370;2023-05-27T12:36:47;21.50;;;9.93;;
12601;SDS011;30282;16.436;99.370;2023-05-27T12:39:17;19.23;;;10.97;;
12601;SDS011;30282;16.436;99.370;2023-05-27T12:41:46;19.33;;;10.03;;
12601;SDS011;30282;16.436;99.370;2023-05-27T12:44:16;19.90;;;10.13;;
12601;SDS011;30282;16.436;99.370;2023-05-27T12:46:45;21.23;;;10.13;;
12601;SDS011;30282;16.436;99.370;2023-05-27T12:49:17;21.30;;;10.83;;
12601;SDS011;30282;16.436;99.370;2023-05-27T12:51:46;17.50;;;9.90;;
12601;SDS011;30282;16.436;99.370;2023-05-27T12:54:16;21.73;;;11.00;;
12601;SDS011;30282;16.436;99.370;2023-05-27T12:56:46;18.70;;;9.43;;
12601;SDS011;30282;16.436;99.370;2023-05-27T12:59:16;24.80;;;12.17;;
12601;SDS011;30282;16.436;99.370;2023-05-27T13:01:46;35.13;;;12.17;;
12601;SDS011;30282;16.436;99.370;2023-05-27T13:04:17;29.67;;;12.50;;
12601;SDS011;30282;16.436;99.370;2023-05-27T13:06:46;24.30;;;12.23;;
12601;SDS011;30282;16.436;99.370;2023-05-27T13:09:16;22.13;;;10.30;;
12601;SDS011;30282;16.436;99.370;2023-05-27T13:11:45;25.13;;;11.17;;
12601;SDS011;30282;16.436;99.370;2023-05-27T13:14:15;28.70;;;12.03;;
12601;SDS011;30282;16.436;99.370;2023-05-27T13:16:45;19.30;;;10.90;;
12601;SDS011;30282;16.436;99.370;2023-05-27T13:19:16;25.73;;;11.10;;
12601;SDS011;30282;16.436;99.370;2023-05-27T13:21:48;20.73;;;11.00;;
12601;SDS011;30282;16.436;99.370;2023-05-27T13:24:21;26.30;;;11.17;;
12601;SDS011;30282;16.436;99.370;2023-05-27T13:26:50;23.70;;;11.40;;
12601;SDS011;30282;16.436;99.370;2023-05-27T13:29:20;22.10;;;10.53;;
12601;SDS011;30282;16.436;99.370;2023-05-27T13:31:51;22.43;;;10.73;;
12601;SDS011;30282;16.436;99.370;2023-05-27T13:34:21;25.47;;;10.60;;
12601;SDS011;30282;16.436;99.370;2023-05-27T13:36:50;24.87;;;11.20;;
12601;SDS011;30282;16.436;99.370;2023-05-27T13:39:20;27.63;;;10.40;;
12601;SDS011;30282;16.436;99.370;2023-05-27T13:41:49;19.57;;;10.50;;
12601;SDS011;30282;16.436;99.370;2023-05-27T13:44:19;21.57;;;10.83;;
12601;SDS011;30282;16.436;99.370;2023-05-27T13:46:49;22.47;;;11.80;;
12601;SDS011;30282;16.436;99.370;2023-05-27T13:49:20;21.37;;;10.30;;
12601;SDS011;30282;16.436;99.370;2023-05-27T13:51:50;19.60;;;9.93;;
12601;SDS011;30282;16.436;99.370;2023-05-27T13:54:19;17.13;;;10.20;;
12601;SDS011;30282;16.436;99.370;2023-05-27T13:56:51;18.77;;;9.37;;
12601;SDS011;30282;16.436;99.370;2023-05-27T13:59:21;24.27;;;10.83;;
12601;SDS011;30282;16.436;99.370;2023-05-27T14:01:52;23.03;;;10.60;;
12601;SDS011;30282;16.436;99.370;2023-05-27T14:04:21;28.40;;;12.37;;
12601;SDS011;30282;16.436;99.370;2023-05-27T14:06:53;24.50;;;12.17;;
12601;SDS011;30282;16.436;99.370;2023-05-27T14:09:22;26.57;;;11.60;;
12601;SDS011;30282;16.436;99.370;2023-05-27T14:11:54;20.47;;;10.30;;
12601;SDS011;30282;16.436;99.370;2023-05-27T14:14:23;16.60;;;10.77;;
12601;SDS011;30282;16.436;99.370;2023-05-27T14:17:00;17.87;;;10.60;;
12601;SDS011;30282;16.436;99.370;2023-05-27T14:19:29;22.80;;;10.67;;
12601;SDS011;30282;16.436;99.370;2023-05-27T14:21:59;26.40;;;10.77;;
12601;SDS011;30282;16.436;99.370;2023-05-27T14:24:28;22.43;;;9.90;;
12601;SDS011;30282;16.436;99.370;2023-05-27T14:26:58;21.70;;;10.10;;
12601;SDS011;30282;16.436;99.370;2023-05-27T14:29:27;17.73;;;11.13;;
12601;SDS011;30282;16.436;99.370;2023-05-27T14:31:59;25.27;;;10.60;;
12601;SDS011;30282;16.436;99.370;2023-05-27T14:34:28;18.27;;;10.13;;
12601;SDS011;30282;16.436;99.370;2023-05-27T14:36:58;25.70;;;11.90;;
12601;SDS011;30282;16.436;99.370;2023-05-27T14:39:27;28.77;;;12.03;;
12601;SDS011;30282;16.436;99.370;2023-05-27T14:41:57;23.07;;;10.03;;